createdAt,value
2018-03-25T00:00:36.394Z,20.17
2018-03-25T00:03:06.111Z,20.50
2018-03-25T00:05:34.481Z,19.67
2018-03-25T00:08:02.102Z,19.43
2018-03-25T00:10:29.815Z,18.97
2018-03-25T00:12:57.406Z,19.20
2018-03-25T00:15:26.077Z,19.53
2018-03-25T00:17:54.463Z,19.77
2018-03-25T00:20:23.056Z,18.57
2018-03-25T00:22:50.682Z,19.67
2018-03-25T00:25:19.640Z,20.77
2018-03-25T00:27:47.298Z,20.87
2018-03-25T00:30:14.878Z,20.57
2018-03-25T00:32:42.482Z,20.23
2018-03-25T00:35:10.102Z,19.83
2018-03-25T00:37:38.792Z,20.40
2018-03-25T00:40:06.452Z,20.40
2018-03-25T00:42:34.153Z,19.90
2018-03-25T00:45:02.774Z,21.47
2018-03-25T00:47:30.366Z,21.03
2018-03-25T00:49:57.982Z,21.27
2018-03-25T00:52:25.624Z,21.73
2018-03-25T00:54:53.249Z,21.13
2018-03-25T00:57:20.897Z,22.17
2018-03-25T00:59:48.486Z,20.93
2018-03-25T01:02:16.100Z,20.87
2018-03-25T01:04:43.768Z,21.00
2018-03-25T01:07:11.380Z,19.53
2018-03-25T01:09:38.987Z,19.97
2018-03-25T01:12:06.581Z,21.40
2018-03-25T01:14:34.212Z,19.67
2018-03-25T01:17:01.804Z,21.47
2018-03-25T01:19:30.209Z,20.40
2018-03-25T01:21:58.472Z,21.27
2018-03-25T01:24:26.169Z,20.50
2018-03-25T01:26:53.760Z,20.60
2018-03-25T01:29:21.328Z,20.30
2018-03-25T01:31:48.946Z,19.90
2018-03-25T01:34:16.531Z,19.77
2018-03-25T01:36:44.322Z,20.97
2018-03-25T01:39:11.909Z,21.07
2018-03-25T01:41:40.399Z,21.20
2018-03-25T01:44:08.843Z,20.83
2018-03-25T01:46:36.464Z,21.33
2018-03-25T01:49:04.859Z,21.77
2018-03-25T01:51:32.512Z,21.70
2018-03-25T01:54:00.879Z,20.97
2018-03-25T01:56:28.547Z,19.97
2018-03-25T01:58:56.168Z,20.53
2018-03-25T02:01:24.496Z,19.83
2018-03-25T02:03:52.119Z,22.40
2018-03-25T02:06:19.725Z,20.70
2018-03-25T02:08:47.336Z,20.67
2018-03-25T02:11:14.924Z,21.07
2018-03-25T02:13:42.577Z,21.27
2018-03-25T02:16:10.238Z,20.27
2018-03-25T02:18:37.824Z,20.90
2018-03-25T02:21:05.446Z,21.10
2018-03-25T02:23:33.054Z,20.70
2018-03-25T02:26:01.449Z,20.73
2018-03-25T02:28:29.111Z,19.83
2018-03-25T02:30:56.698Z,20.63
2018-03-25T02:33:26.073Z,21.20
2018-03-25T02:35:53.702Z,20.57
2018-03-25T02:38:21.282Z,21.07
2018-03-25T02:40:48.932Z,20.13
2018-03-25T02:43:17.284Z,20.97
2018-03-25T02:45:44.942Z,20.83
2018-03-25T02:48:12.545Z,21.27
2018-03-25T02:50:40.194Z,22.27
2018-03-25T02:53:07.786Z,21.03
2018-03-25T02:55:35.386Z,22.13
2018-03-25T02:58:03.089Z,20.53
2018-03-25T03:00:31.480Z,21.27
2018-03-25T03:02:59.843Z,22.57
2018-03-25T03:05:28.265Z,22.50
2018-03-25T03:07:55.981Z,22.97
2018-03-25T03:10:23.622Z,21.23
2018-03-25T03:12:52.637Z,22.17
2018-03-25T03:15:20.279Z,23.57
2018-03-25T03:17:47.897Z,22.30
2018-03-25T03:20:15.522Z,22.33
2018-03-25T03:22:43.732Z,22.77
2018-03-25T03:25:11.352Z,23.80
2018-03-25T03:27:38.974Z,22.57
2018-03-25T03:30:08.825Z,21.80
2018-03-25T03:32:36.447Z,22.37
2018-03-25T03:35:04.960Z,22.63
2018-03-25T03:37:33.382Z,22.23
2018-03-25T03:40:00.989Z,21.67
2018-03-25T03:42:28.636Z,22.33
2018-03-25T03:44:56.313Z,22.97
2018-03-25T03:47:23.949Z,22.67
2018-03-25T03:49:51.605Z,23.70
2018-03-25T03:52:19.191Z,23.83
2018-03-25T03:54:46.829Z,22.83
2018-03-25T03:57:14.461Z,22.80
2018-03-25T03:59:43.062Z,23.00
2018-03-25T04:02:10.736Z,23.20
2018-03-25T04:04:39.206Z,23.87
2018-03-25T04:07:07.610Z,22.97
2018-03-25T04:09:35.999Z,22.83
2018-03-25T04:12:04.172Z,23.37
2018-03-25T04:14:31.810Z,23.40
2018-03-25T04:16:59.496Z,24.77
2018-03-25T04:19:28.050Z,22.73
2018-03-25T04:21:55.677Z,24.50
2018-03-25T04:24:23.901Z,24.07
2018-03-25T04:26:51.573Z,23.13
2018-03-25T04:29:19.175Z,24.23
2018-03-25T04:31:46.810Z,23.10
2018-03-25T04:34:14.459Z,23.63
2018-03-25T04:36:42.305Z,22.90
2018-03-25T04:39:09.911Z,23.30
2018-03-25T04:41:37.537Z,24.17
2018-03-25T04:44:05.175Z,24.27
2018-03-25T04:46:32.763Z,23.23
2018-03-25T04:49:00.416Z,25.27
2018-03-25T04:51:28.016Z,24.60
2018-03-25T04:53:55.688Z,22.57
2018-03-25T04:56:23.840Z,23.80
2018-03-25T04:58:51.481Z,23.50
2018-03-25T05:01:19.071Z,23.90
2018-03-25T05:03:46.697Z,24.00
2018-03-25T05:06:15.100Z,22.93
2018-03-25T05:08:43.372Z,24.93
2018-03-25T05:11:10.970Z,25.40
2018-03-25T05:13:39.037Z,23.73
2018-03-25T05:16:06.629Z,25.07
2018-03-25T05:18:34.255Z,24.27
2018-03-25T05:21:01.889Z,25.70
2018-03-25T05:23:30.290Z,25.77
2018-03-25T05:25:57.997Z,26.37
2018-03-25T05:28:25.666Z,27.10
2018-03-25T05:30:53.262Z,26.03
2018-03-25T05:33:20.849Z,23.47
2018-03-25T05:35:49.242Z,24.60
2018-03-25T05:38:18.200Z,25.10
2018-03-25T05:40:46.382Z,25.93
2018-03-25T05:43:13.974Z,25.57
2018-03-25T05:45:42.592Z,25.53
2018-03-25T05:48:10.194Z,25.23
2018-03-25T05:50:37.846Z,24.43
2018-03-25T05:53:05.421Z,23.10
2018-03-25T05:55:33.071Z,23.97
2018-03-25T05:58:00.715Z,24.73
2018-03-25T06:00:28.326Z,23.80
2018-03-25T06:02:55.979Z,25.47
2018-03-25T06:05:24.261Z,25.37
2018-03-25T06:07:51.897Z,24.33
2018-03-25T06:10:19.533Z,24.67
2018-03-25T06:12:47.947Z,24.30
2018-03-25T06:15:15.621Z,25.33
2018-03-25T06:17:43.271Z,25.67
2018-03-25T06:20:10.938Z,25.07
2018-03-25T06:22:38.599Z,25.27
2018-03-25T06:25:06.973Z,25.57
2018-03-25T06:27:35.459Z,25.77
2018-03-25T06:30:03.927Z,24.97
2018-03-25T06:32:32.324Z,26.50
2018-03-25T06:34:59.998Z,25.47
2018-03-25T06:37:28.500Z,26.13
2018-03-25T06:39:56.129Z,25.73
2018-03-25T06:42:24.619Z,28.13
2018-03-25T06:44:52.331Z,26.83
2018-03-25T06:47:19.983Z,26.93
2018-03-25T06:49:47.609Z,28.13
2018-03-25T06:52:15.233Z,28.50
2018-03-25T06:54:43.279Z,25.83
2018-03-25T06:57:11.703Z,26.60
2018-03-25T06:59:39.342Z,26.17
2018-03-25T07:02:07.021Z,25.90
2018-03-25T07:04:34.706Z,25.20
2018-03-25T07:07:02.395Z,26.70
2018-03-25T07:09:30.118Z,27.80
2018-03-25T07:11:57.960Z,26.70
2018-03-25T07:14:27.071Z,27.07
2018-03-25T07:16:54.698Z,26.83
2018-03-25T07:19:22.387Z,27.73
2018-03-25T07:21:50.804Z,26.87
2018-03-25T07:24:18.511Z,27.00
2018-03-25T07:26:46.192Z,28.97
2018-03-25T07:29:13.933Z,30.77
2018-03-25T07:31:41.619Z,26.97
2018-03-25T07:34:09.275Z,27.00
2018-03-25T07:36:36.941Z,28.83
2018-03-25T07:39:04.585Z,26.80
2018-03-25T07:41:32.217Z,27.90
2018-03-25T07:43:59.880Z,27.47
2018-03-25T07:46:27.489Z,27.53
2018-03-25T07:48:55.079Z,27.10
2018-03-25T07:51:22.921Z,27.70
2018-03-25T07:53:51.266Z,27.27
2018-03-25T07:56:19.629Z,27.03
2018-03-25T07:58:47.216Z,31.07
2018-03-25T08:01:14.800Z,30.03
2018-03-25T08:03:42.462Z,28.73
2018-03-25T08:06:10.110Z,29.10
2018-03-25T08:08:37.724Z,28.00
2018-03-25T08:11:05.396Z,28.10
2018-03-25T08:13:33.008Z,29.33
2018-03-25T08:16:01.389Z,28.73
2018-03-25T08:18:28.978Z,29.70
2018-03-25T08:20:56.590Z,28.83
2018-03-25T08:23:24.231Z,26.73
2018-03-25T08:25:51.887Z,28.30
2018-03-25T08:28:19.589Z,27.37
2018-03-25T08:30:47.273Z,25.70
2018-03-25T08:33:14.877Z,25.70
2018-03-25T08:35:42.585Z,25.60
2018-03-25T08:38:10.271Z,25.87
2018-03-25T08:40:38.716Z,25.33
2018-03-25T08:43:07.562Z,25.33
2018-03-25T08:45:36.206Z,26.00
2018-03-25T08:48:04.749Z,24.80
2018-03-25T08:50:32.484Z,24.53
2018-03-25T08:53:00.257Z,23.87
2018-03-25T08:55:27.985Z,24.87
2018-03-25T08:57:55.638Z,25.67
2018-03-25T09:00:23.374Z,24.10
2018-03-25T09:02:52.347Z,25.00
2018-03-25T09:05:19.962Z,24.80
2018-03-25T09:07:48.331Z,24.70
2018-03-25T09:10:16.039Z,25.13
2018-03-25T09:12:44.629Z,26.23
2018-03-25T09:15:13.157Z,25.10
2018-03-25T09:17:41.655Z,24.57
2018-03-25T09:20:09.800Z,25.23
2018-03-25T09:22:37.423Z,24.80
2018-03-25T09:25:05.591Z,25.47
2018-03-25T09:27:34.058Z,22.03
2018-03-25T09:30:02.769Z,22.30
2018-03-25T09:32:31.944Z,23.77
2018-03-25T09:34:59.566Z,23.83
2018-03-25T09:37:27.185Z,22.27
2018-03-25T09:39:55.572Z,18.83
2018-03-25T09:42:25.734Z,23.63
2018-03-25T09:44:54.198Z,21.10
2018-03-25T09:47:21.835Z,20.63
2018-03-25T09:49:49.409Z,20.83
2018-03-25T09:52:17.677Z,20.83
2018-03-25T09:54:45.413Z,21.77
2018-03-25T09:57:13.119Z,20.10
2018-03-25T09:59:41.485Z,20.33
2018-03-25T10:02:28.659Z,22.00
2018-03-25T10:04:56.349Z,21.20
2018-03-25T10:07:24.626Z,20.20
2018-03-25T10:09:52.337Z,20.13
2018-03-25T10:12:21.549Z,21.63
2018-03-25T10:14:50.116Z,21.27
2018-03-25T10:17:21.138Z,22.17
2018-03-25T10:19:51.710Z,23.17
2018-03-25T10:22:25.966Z,22.30
2018-03-25T10:24:54.671Z,22.40
2018-03-25T10:27:22.370Z,23.40
2018-03-25T10:29:50.819Z,23.40
2018-03-25T10:32:19.296Z,22.43
2018-03-25T10:34:47.009Z,23.40
2018-03-25T10:37:16.519Z,22.87
2018-03-25T10:39:46.781Z,22.77
2018-03-25T10:42:14.669Z,21.37
2018-03-25T10:44:44.069Z,22.80
2018-03-25T10:47:13.166Z,23.03
2018-03-25T10:49:41.684Z,20.80
2018-03-25T10:52:09.955Z,21.17
2018-03-25T10:54:37.730Z,21.53
2018-03-25T10:57:05.443Z,20.67
2018-03-25T10:59:34.854Z,21.43
2018-03-25T11:02:03.211Z,21.83
2018-03-25T11:04:31.690Z,21.30
2018-03-25T11:06:59.358Z,20.53
2018-03-25T11:09:28.664Z,22.30
2018-03-25T11:11:56.645Z,22.13
2018-03-25T11:14:24.752Z,21.00
2018-03-25T11:16:52.758Z,21.10
2018-03-25T11:19:21.123Z,22.30
2018-03-25T11:21:49.295Z,23.70
2018-03-25T11:24:17.183Z,23.57
2018-03-25T11:26:45.857Z,22.27
2018-03-25T11:29:13.695Z,23.70
2018-03-25T11:31:41.537Z,21.77
2018-03-25T11:34:09.733Z,24.13
2018-03-25T11:36:38.238Z,22.53
2018-03-25T11:39:06.785Z,22.67
2018-03-25T11:41:38.438Z,22.13
2018-03-25T11:44:06.236Z,23.20
2018-03-25T11:46:34.683Z,23.03
2018-03-25T11:49:02.336Z,32.07
2018-03-25T11:51:30.086Z,32.33
2018-03-25T11:53:57.744Z,24.67
2018-03-25T11:56:25.467Z,24.87
2018-03-25T11:58:53.266Z,26.33
2018-03-25T12:01:21.809Z,24.90
2018-03-25T12:03:50.289Z,22.87
2018-03-25T12:06:17.983Z,21.80
2018-03-25T12:08:45.965Z,22.43
2018-03-25T12:11:14.570Z,22.23
2018-03-25T12:13:42.297Z,22.70
2018-03-25T12:16:10.147Z,22.27
2018-03-25T12:18:38.744Z,24.47
2018-03-25T12:21:07.085Z,22.03
2018-03-25T12:23:34.799Z,22.50
2018-03-25T12:26:03.480Z,22.30
2018-03-25T12:28:31.122Z,21.80
2018-03-25T12:30:58.734Z,20.60
2018-03-25T12:33:26.320Z,21.70
2018-03-25T12:35:54.687Z,20.67
2018-03-25T12:38:22.324Z,20.90
2018-03-25T12:40:50.840Z,20.40
2018-03-25T12:43:18.784Z,19.83
2018-03-25T12:45:49.273Z,17.90
2018-03-25T12:48:17.823Z,17.43
2018-03-25T12:50:45.796Z,19.40
2018-03-25T12:53:14.616Z,19.10
2018-03-25T12:55:43.012Z,18.10
2018-03-25T12:58:11.085Z,17.37
2018-03-25T13:00:40.238Z,19.10
2018-03-25T13:03:08.058Z,19.40
2018-03-25T13:05:46.288Z,18.10
2018-03-25T13:08:15.132Z,18.10
2018-03-25T13:10:44.144Z,19.50
2018-03-25T13:13:12.096Z,18.90
2018-03-25T13:15:40.876Z,19.70
2018-03-25T13:18:08.594Z,20.10
2018-03-25T13:20:37.496Z,19.30
2018-03-25T13:23:06.633Z,20.30
2018-03-25T13:25:34.376Z,19.33
2018-03-25T13:28:03.206Z,19.53
2018-03-25T13:30:32.996Z,20.07
2018-03-25T13:33:02.075Z,19.50
2018-03-25T13:35:31.302Z,19.20
2018-03-25T13:38:00.743Z,19.77
2018-03-25T13:40:28.465Z,19.53
2018-03-25T13:42:56.901Z,20.23
2018-03-25T13:45:25.795Z,19.37
2018-03-25T13:47:54.772Z,18.73
2018-03-25T13:50:23.753Z,19.13
2018-03-25T13:52:52.179Z,19.73
2018-03-25T13:55:20.892Z,18.73
2018-03-25T13:57:48.773Z,18.43
2018-03-25T14:00:16.890Z,20.00
2018-03-25T14:02:44.683Z,21.87
2018-03-25T14:05:15.658Z,19.70
2018-03-25T14:07:46.603Z,19.43
2018-03-25T14:10:16.362Z,18.30
2018-03-25T14:12:48.262Z,19.07
2018-03-25T14:15:16.245Z,20.30
2018-03-25T14:17:46.255Z,19.77
2018-03-25T14:20:14.150Z,20.57
2018-03-25T14:22:47.364Z,19.30
2018-03-25T14:25:15.999Z,20.03
2018-03-25T14:27:46.149Z,20.00
2018-03-25T14:30:14.171Z,20.67
2018-03-25T14:32:42.420Z,19.27
2018-03-25T14:35:10.840Z,19.53
2018-03-25T14:37:40.956Z,20.10
2018-03-25T14:40:08.962Z,20.20
2018-03-25T14:42:37.530Z,18.70
2018-03-25T14:45:06.654Z,19.80
2018-03-25T14:47:35.661Z,19.77
2018-03-25T14:50:06.864Z,19.90
2018-03-25T14:52:34.636Z,18.63
2018-03-25T14:55:03.079Z,20.27
2018-03-25T14:57:31.402Z,20.33
2018-03-25T14:59:59.546Z,20.17
2018-03-25T15:02:27.567Z,20.67
2018-03-25T15:04:57.585Z,19.37
2018-03-25T15:07:25.317Z,19.80
2018-03-25T15:09:53.874Z,19.27
2018-03-25T15:12:24.331Z,20.13
2018-03-25T15:14:52.593Z,19.23
2018-03-25T15:17:22.379Z,19.20
2018-03-25T15:19:50.537Z,18.97
2018-03-25T15:22:20.166Z,19.93
2018-03-25T15:24:49.065Z,18.63
2018-03-25T15:27:17.117Z,18.33
2018-03-25T15:29:46.033Z,18.37
2018-03-25T15:32:14.430Z,17.87
2018-03-25T15:34:44.448Z,17.77
2018-03-25T15:37:13.984Z,17.70
2018-03-25T15:39:42.438Z,18.70
2018-03-25T15:42:11.544Z,18.13
2018-03-25T15:44:39.513Z,17.07
2018-03-25T15:47:08.328Z,16.83
2018-03-25T15:49:36.439Z,19.00
2018-03-25T15:52:04.669Z,17.73
2018-03-25T15:54:32.751Z,17.93
2018-03-25T15:57:01.258Z,17.90
2018-03-25T15:59:29.369Z,17.37
2018-03-25T16:02:00.243Z,18.57
2018-03-25T16:04:28.395Z,18.00
2018-03-25T16:06:59.961Z,18.20
2018-03-25T16:09:33.325Z,16.83
2018-03-25T16:12:02.072Z,17.77
2018-03-25T16:14:32.406Z,17.83
2018-03-25T16:17:00.811Z,18.20
2018-03-25T16:19:30.340Z,18.43
2018-03-25T16:22:00.347Z,19.13
2018-03-25T16:24:29.909Z,18.00
2018-03-25T16:26:58.335Z,18.53
2018-03-25T16:29:26.218Z,18.03
2018-03-25T16:31:54.051Z,18.60
2018-03-25T16:34:22.559Z,18.70
2018-03-25T16:36:52.291Z,19.33
2018-03-25T16:39:21.365Z,19.70
2018-03-25T16:41:49.309Z,18.57
2018-03-25T16:44:17.600Z,17.50
2018-03-25T16:46:47.004Z,18.70
2018-03-25T16:49:16.268Z,20.53
2018-03-25T16:51:43.890Z,19.73
2018-03-25T16:54:11.637Z,19.87
2018-03-25T16:56:40.156Z,20.60
2018-03-25T16:59:07.898Z,19.13
2018-03-25T17:01:41.729Z,19.57
2018-03-25T17:04:12.085Z,19.73
2018-03-25T17:06:41.203Z,19.50
2018-03-25T17:09:09.093Z,20.27
2018-03-25T17:11:47.045Z,20.70
2018-03-25T17:14:15.235Z,19.80
2018-03-25T17:16:44.806Z,19.50
2018-03-25T17:19:12.653Z,19.77
2018-03-25T17:21:41.219Z,18.90
2018-03-25T17:24:09.290Z,19.30
2018-03-25T17:26:37.966Z,19.80
2018-03-25T17:29:05.751Z,19.00
2018-03-25T17:31:33.622Z,19.57
2018-03-25T17:34:01.324Z,20.13
2018-03-25T17:36:29.726Z,19.57
2018-03-25T17:38:58.203Z,19.30
2018-03-25T17:41:26.772Z,20.13
2018-03-25T17:43:54.689Z,19.20
2018-03-25T17:46:24.525Z,18.90
2018-03-25T17:48:53.049Z,20.47
2018-03-25T17:51:23.467Z,20.43
2018-03-25T17:53:51.332Z,19.07
2018-03-25T17:56:19.204Z,19.67
2018-03-25T17:58:47.599Z,17.97
2018-03-25T18:01:15.513Z,18.33
2018-03-25T18:03:43.988Z,19.77
2018-03-25T18:06:11.834Z,19.50
2018-03-25T18:08:39.678Z,18.87
2018-03-25T18:11:08.065Z,19.80
2018-03-25T18:13:35.737Z,21.03
2018-03-25T18:16:03.453Z,18.97
2018-03-25T18:18:31.144Z,19.50
2018-03-25T18:20:58.816Z,20.17
2018-03-25T18:23:26.513Z,19.10
2018-03-25T18:25:54.194Z,20.40
2018-03-25T18:28:23.601Z,20.50
2018-03-25T18:30:52.201Z,19.23
2018-03-25T18:33:19.910Z,18.87
2018-03-25T18:35:48.270Z,20.43
2018-03-25T18:38:16.024Z,19.90
2018-03-25T18:40:43.742Z,19.53
2018-03-25T18:43:11.414Z,19.87
2018-03-25T18:45:39.345Z,19.23
2018-03-25T18:48:07.096Z,25.10
2018-03-25T18:50:35.306Z,24.63
2018-03-25T18:53:03.140Z,31.30
2018-03-25T18:55:31.786Z,26.57
2018-03-25T18:57:59.422Z,57.40
2018-03-25T19:00:27.060Z,48.63
2018-03-25T19:02:55.252Z,35.23
2018-03-25T19:05:23.223Z,33.37
2018-03-25T19:07:52.383Z,36.27
2018-03-25T19:10:20.203Z,33.33
2018-03-25T19:12:48.656Z,34.47
2018-03-25T19:15:16.368Z,33.83
2018-03-25T19:17:45.859Z,33.70
2018-03-25T19:20:14.343Z,33.20
2018-03-25T19:22:43.893Z,35.07
2018-03-25T19:25:11.977Z,34.83
2018-03-25T19:27:41.046Z,35.77
2018-03-25T19:30:09.535Z,34.87
2018-03-25T19:32:38.024Z,35.57
2018-03-25T19:35:05.829Z,35.10
2018-03-25T19:37:35.788Z,37.07
2018-03-25T19:40:05.178Z,36.53
2018-03-25T19:42:33.838Z,36.13
2018-03-25T19:45:02.528Z,34.10
2018-03-25T19:47:30.236Z,35.73
2018-03-25T19:49:58.766Z,36.27
2018-03-25T19:52:26.431Z,34.03
2018-03-25T19:54:56.011Z,35.80
2018-03-25T19:57:25.989Z,35.33
2018-03-25T19:59:54.359Z,37.83
2018-03-25T20:02:22.423Z,35.73
2018-03-25T20:04:50.070Z,36.30
2018-03-25T20:07:17.818Z,35.90
2018-03-25T20:09:45.483Z,36.93
2018-03-25T20:12:13.071Z,36.37
2018-03-25T20:14:40.752Z,34.93
2018-03-25T20:17:08.384Z,37.97
2018-03-25T20:19:36.747Z,35.90
2018-03-25T20:22:04.343Z,35.83
2018-03-25T20:24:31.996Z,35.00
2018-03-25T20:27:00.390Z,34.63
2018-03-25T20:29:28.084Z,37.33
2018-03-25T20:31:55.722Z,34.97
2018-03-25T20:34:23.336Z,35.67
2018-03-25T20:36:50.967Z,37.20
2018-03-25T20:39:18.564Z,32.10
2018-03-25T20:41:46.175Z,35.40
2018-03-25T20:44:14.576Z,40.03
2018-03-25T20:46:42.263Z,35.87
2018-03-25T20:49:09.857Z,34.43
2018-03-25T20:51:37.511Z,36.17
2018-03-25T20:54:05.199Z,34.83
2018-03-25T20:56:32.810Z,35.87
2018-03-25T20:59:00.430Z,36.37
2018-03-25T21:01:28.062Z,34.87
2018-03-25T21:03:55.663Z,35.00
2018-03-25T21:06:23.283Z,35.20
2018-03-25T21:08:50.916Z,34.13
2018-03-25T21:11:19.298Z,34.53
2018-03-25T21:13:47.674Z,33.63
2018-03-25T21:16:16.156Z,34.63
2018-03-25T21:18:45.036Z,34.03
2018-03-25T21:21:12.686Z,35.00
2018-03-25T21:23:40.347Z,35.47
2018-03-25T21:26:07.997Z,37.83
2018-03-25T21:28:37.872Z,36.73
2018-03-25T21:31:05.611Z,33.63
2018-03-25T21:33:33.243Z,33.13
2018-03-25T21:36:00.883Z,34.17
2018-03-25T21:38:29.281Z,34.87
2018-03-25T21:40:56.895Z,34.67
2018-03-25T21:43:24.552Z,33.23
2018-03-25T21:45:52.201Z,35.77
2018-03-25T21:48:19.843Z,32.23
2018-03-25T21:50:47.508Z,34.93
2018-03-25T21:53:15.888Z,35.37
2018-03-25T21:55:44.391Z,33.83
2018-03-25T21:58:12.006Z,34.83
2018-03-25T22:00:39.664Z,34.67
2018-03-25T22:03:08.020Z,34.97
2018-03-25T22:05:35.670Z,35.77
2018-03-25T22:08:03.328Z,33.77
2018-03-25T22:10:30.954Z,35.30
2018-03-25T22:12:58.702Z,34.07
2018-03-25T22:15:26.349Z,35.73
2018-03-25T22:17:54.031Z,36.20
2018-03-25T22:20:21.682Z,37.83
2018-03-25T22:22:49.274Z,35.47
2018-03-25T22:25:16.915Z,34.40
2018-03-25T22:27:45.318Z,35.77
2018-03-25T22:30:13.182Z,34.90
2018-03-25T22:32:40.843Z,33.80
2018-03-25T22:35:08.551Z,36.27
2018-03-25T22:37:36.249Z,34.93
2018-03-25T22:40:03.895Z,34.30
2018-03-25T22:42:32.329Z,34.13
2018-03-25T22:44:59.994Z,32.97
2018-03-25T22:47:27.694Z,31.17
2018-03-25T22:49:55.281Z,33.13
2018-03-25T22:52:23.800Z,32.40
2018-03-25T22:54:51.462Z,33.97
2018-03-25T22:57:19.112Z,33.43
2018-03-25T22:59:47.530Z,33.63
2018-03-25T23:02:15.202Z,37.53
2018-03-25T23:04:43.136Z,34.77
2018-03-25T23:07:10.793Z,34.73
2018-03-25T23:09:38.426Z,34.60
2018-03-25T23:12:06.833Z,38.17
2018-03-25T23:14:34.478Z,36.03
2018-03-25T23:17:02.176Z,36.53
2018-03-25T23:19:29.913Z,40.33
2018-03-25T23:21:57.519Z,40.20
2018-03-25T23:24:26.013Z,39.00
2018-03-25T23:26:53.653Z,35.67
2018-03-25T23:29:22.421Z,34.93
2018-03-25T23:31:50.107Z,33.37
2018-03-25T23:34:17.707Z,32.97
2018-03-25T23:36:45.364Z,32.27
2018-03-25T23:39:13.582Z,31.77
2018-03-25T23:41:41.482Z,33.80
2018-03-25T23:44:09.162Z,32.30
2018-03-25T23:46:36.829Z,31.07
2018-03-25T23:49:05.310Z,31.00
2018-03-25T23:51:33.211Z,32.70
2018-03-25T23:54:00.822Z,33.10
2018-03-25T23:56:28.588Z,34.17
2018-03-25T23:58:56.291Z,33.07
